createdAt,value
2019-06-01T00:01:17.565Z,100768.52
2019-06-01T00:03:46.833Z,100779.86
2019-06-01T00:06:16.055Z,100784.72
2019-06-01T00:08:45.337Z,100791.54
2019-06-01T00:11:14.558Z,100797.28
2019-06-01T00:13:44.074Z,100792.13
2019-06-01T00:16:13.306Z,100796.00
2019-06-01T00:18:43.912Z,100794.41
2019-06-01T00:21:13.278Z,100788.41
2019-06-01T00:23:42.637Z,100791.70
2019-06-01T00:26:11.865Z,100786.59
2019-06-01T00:28:41.662Z,100773.86
2019-06-01T00:31:10.937Z,100772.47
2019-06-01T00:33:41.179Z,100775.66
2019-06-01T00:36:10.394Z,100773.44
2019-06-01T00:38:39.677Z,100778.89
2019-06-01T00:41:08.887Z,100781.05
2019-06-01T00:43:38.147Z,100784.31
2019-06-01T00:46:07.651Z,100791.02
2019-06-01T00:48:36.891Z,100794.80
2019-06-01T00:51:06.111Z,100792.05
2019-06-01T00:53:35.345Z,100798.52
2019-06-01T00:56:04.559Z,100795.67
2019-06-01T00:58:33.801Z,100803.94
2019-06-01T01:01:03.293Z,100802.58
2019-06-01T01:03:32.809Z,100793.84
2019-06-01T01:06:02.052Z,100797.62
2019-06-01T01:08:31.591Z,100793.81
2019-06-01T01:11:00.800Z,100785.80
2019-06-01T01:13:30.429Z,100792.08
2019-06-01T01:15:59.628Z,100787.70
2019-06-01T01:18:28.881Z,100798.86
2019-06-01T01:20:58.290Z,100790.42
2019-06-01T01:23:27.571Z,100794.77
2019-06-01T01:25:56.786Z,100790.95
2019-06-01T01:28:26.129Z,100793.70
2019-06-01T01:31:06.859Z,100790.02
2019-06-01T01:33:26.576Z,100787.73
2019-06-01T01:35:55.918Z,100783.53
2019-06-01T01:38:25.103Z,100785.98
2019-06-01T01:40:54.445Z,100792.60
2019-06-01T01:43:23.931Z,100794.42
2019-06-01T01:45:53.245Z,100802.72
2019-06-01T01:48:22.471Z,100814.66
2019-06-01T01:50:52.405Z,100824.10
2019-06-01T01:53:21.743Z,100823.83
2019-06-01T01:55:51.055Z,100826.03
2019-06-01T01:58:20.465Z,100820.02
2019-06-01T02:00:52.953Z,100823.83
2019-06-01T02:03:21.523Z,100824.94
2019-06-01T02:05:50.869Z,100828.09
2019-06-01T02:08:20.072Z,100827.13
2019-06-01T02:10:49.349Z,100827.53
2019-06-01T02:13:18.660Z,100828.45
2019-06-01T02:15:47.985Z,100834.02
2019-06-01T02:18:17.203Z,100828.27
2019-06-01T02:20:46.833Z,100827.30
2019-06-01T02:23:16.042Z,100823.75
2019-06-01T02:25:45.467Z,100820.98
2019-06-01T02:28:14.706Z,100824.31
2019-06-01T02:30:43.985Z,100824.33
2019-06-01T02:33:13.222Z,100831.69
2019-06-01T02:35:42.521Z,100833.23
2019-06-01T02:38:11.748Z,100835.38
2019-06-01T02:40:41.000Z,100837.06
2019-06-01T02:43:10.248Z,100842.12
2019-06-01T02:45:39.473Z,100838.09
2019-06-01T02:48:08.805Z,100834.23
2019-06-01T02:50:38.071Z,100831.25
2019-06-01T02:53:09.379Z,100816.63
2019-06-01T02:55:38.642Z,100811.16
2019-06-01T02:58:07.847Z,100806.45
2019-06-01T03:01:21.075Z,100806.88
2019-06-01T03:03:51.992Z,100807.81
2019-06-01T03:06:21.309Z,100806.66
2019-06-01T03:08:52.894Z,100804.51
2019-06-01T03:11:25.107Z,100803.11
2019-06-01T03:13:58.262Z,100798.23
2019-06-01T03:16:30.425Z,100795.69
2019-06-01T03:19:03.691Z,100789.19
2019-06-01T03:21:33.857Z,100789.67
2019-06-01T03:24:08.142Z,100781.20
2019-06-01T03:26:43.463Z,100777.82
2019-06-01T03:29:16.726Z,100779.39
2019-06-01T03:31:46.020Z,100783.51
2019-06-01T03:34:15.245Z,100779.02
2019-06-01T03:36:44.943Z,100783.95
2019-06-01T03:39:14.179Z,100784.41
2019-06-01T03:41:43.531Z,100791.52
2019-06-01T03:44:13.088Z,100790.52
2019-06-01T03:46:42.423Z,100798.92
2019-06-01T03:49:12.029Z,100796.30
2019-06-01T03:51:41.384Z,100792.97
2019-06-01T03:54:10.706Z,100789.89
2019-06-01T03:56:40.085Z,100786.16
2019-06-01T03:59:09.497Z,100790.51
2019-06-01T04:01:38.734Z,100801.27
2019-06-01T04:04:09.320Z,100795.70
2019-06-01T04:06:38.651Z,100802.86
2019-06-01T04:09:09.740Z,100809.05
2019-06-01T04:11:39.159Z,100813.70
2019-06-01T04:14:09.645Z,100807.08
2019-06-01T04:16:42.312Z,100801.11
2019-06-01T04:19:12.167Z,100808.48
2019-06-01T04:21:41.501Z,100798.61
2019-06-01T04:24:10.779Z,100798.31
2019-06-01T04:26:40.004Z,100801.23
2019-06-01T04:29:10.362Z,100805.58
2019-06-01T04:31:39.775Z,100810.80
2019-06-01T04:34:09.379Z,100807.90
2019-06-01T04:36:38.678Z,100812.90
2019-06-01T04:39:09.457Z,100818.99
2019-06-01T04:41:38.795Z,100830.56
2019-06-01T04:44:08.157Z,100835.78
2019-06-01T04:46:37.450Z,100830.86
2019-06-01T04:49:06.721Z,100842.23
2019-06-01T04:51:35.940Z,100829.29
2019-06-01T04:54:06.839Z,100828.06
2019-06-01T04:56:36.370Z,100825.84
2019-06-01T04:59:07.087Z,100823.00
2019-06-01T05:01:36.367Z,100824.28
2019-06-01T05:09:34.424Z,100779.35
2019-06-01T05:12:05.237Z,100808.83
2019-06-01T05:14:35.375Z,100810.84
2019-06-01T05:17:05.808Z,100798.02
2019-06-01T05:19:36.283Z,100796.18
2019-06-01T05:22:06.436Z,100795.92
2019-06-01T05:24:36.776Z,100792.70
2019-06-01T05:27:09.029Z,100788.09
2019-06-01T05:29:40.016Z,100787.88
2019-06-01T05:32:12.609Z,100787.05
2019-06-01T05:34:46.659Z,100788.41
2019-06-01T05:37:29.676Z,100784.89
2019-06-01T05:40:01.326Z,100785.20
2019-06-01T05:42:33.021Z,100783.32
2019-06-01T05:45:03.086Z,100788.56
2019-06-01T05:47:37.705Z,100780.95
2019-06-01T05:50:10.473Z,100777.67
2019-06-01T05:55:16.769Z,100751.14
2019-06-01T05:57:46.017Z,100727.58
2019-06-01T06:00:15.568Z,100703.67
2019-06-01T06:02:45.459Z,100680.63
2019-06-01T06:05:16.615Z,100672.09
2019-06-01T06:07:46.382Z,100655.95
2019-06-01T06:10:16.072Z,100656.56
2019-06-01T06:12:45.498Z,100650.99
2019-06-01T06:15:15.775Z,100645.47
2019-06-01T06:17:45.088Z,100635.50
2019-06-01T06:20:15.911Z,100632.08
2019-06-01T06:22:45.332Z,100630.06
2019-06-01T06:25:14.540Z,100628.07
2019-06-01T06:27:43.793Z,100621.19
2019-06-01T06:30:13.135Z,100621.94
2019-06-01T06:32:42.496Z,100617.16
2019-06-01T06:35:11.978Z,100606.93
2019-06-01T06:37:43.359Z,100592.95
2019-06-01T06:40:14.566Z,100604.63
2019-06-01T06:42:43.933Z,100593.92
2019-06-01T06:45:14.585Z,100605.31
2019-06-01T06:47:44.356Z,100605.31
2019-06-01T06:50:17.742Z,100596.68
2019-06-01T06:52:48.300Z,100596.68
2019-06-01T06:55:19.863Z,100598.69
2019-06-01T06:57:50.390Z,100593.91
2019-06-01T07:00:20.607Z,100593.91
2019-06-01T07:02:51.183Z,100591.22
2019-06-01T07:05:21.348Z,100591.22
2019-06-01T07:07:50.799Z,100589.20
2019-06-01T07:10:20.192Z,100589.20
2019-06-01T07:12:50.809Z,100589.72
2019-06-01T07:15:21.384Z,100581.80
2019-06-01T07:17:55.119Z,100589.87
2019-06-01T07:20:24.343Z,100588.81
2019-06-01T07:22:53.648Z,100593.59
2019-06-01T07:25:22.905Z,100600.66
2019-06-01T07:27:52.284Z,100606.02
2019-06-01T07:30:28.459Z,100608.94
2019-06-01T07:32:57.904Z,100618.19
2019-06-01T07:35:28.447Z,100614.43
2019-06-01T07:38:18.371Z,100629.19
2019-06-01T07:40:47.754Z,100620.53
2019-06-01T07:44:18.163Z,100623.39
2019-06-01T08:28:50.340Z,100723.59
2019-06-01T08:31:39.513Z,100722.77
2019-06-01T08:43:58.785Z,100744.09
2019-06-01T08:47:34.048Z,100745.52
2019-06-01T08:50:05.220Z,100743.73
2019-06-01T08:52:34.492Z,100728.77
2019-06-01T08:56:04.972Z,100734.59
2019-06-01T08:58:50.236Z,100728.22
2019-06-01T09:01:42.407Z,100726.37
2019-06-01T09:07:02.119Z,100745.69
2019-06-01T09:09:33.034Z,100736.47
2019-06-01T09:12:31.374Z,100745.02
2019-06-01T09:15:20.184Z,100746.77
2019-06-01T09:17:49.548Z,100732.58
2019-06-01T09:20:23.407Z,100729.52
2019-06-01T09:23:03.686Z,100740.80
2019-06-01T09:25:52.304Z,100739.16
2019-06-01T09:28:21.694Z,100734.05
2019-06-01T09:30:50.965Z,100741.64
2019-06-01T09:34:06.539Z,100738.87
2019-06-01T09:40:13.519Z,100729.95
2019-06-01T09:42:42.809Z,100704.64
2019-06-01T09:45:12.588Z,100703.75
2019-06-01T09:47:42.679Z,100723.77
2019-06-01T09:50:14.116Z,100720.45
2019-06-01T09:52:47.700Z,100725.95
2019-06-01T09:55:17.060Z,100716.44
2019-06-01T09:57:48.996Z,100706.29
2019-06-01T10:00:18.653Z,100711.87
2019-06-01T10:02:47.881Z,100725.41
2019-06-01T10:05:17.816Z,100742.25
2019-06-01T10:07:47.060Z,100744.30
2019-06-01T10:10:16.671Z,100746.73
2019-06-01T10:12:45.918Z,100749.09
2019-06-01T10:15:15.969Z,100748.63
2019-06-01T10:17:45.258Z,100732.37
2019-06-01T10:20:14.625Z,100724.59
2019-06-01T10:23:06.913Z,100738.61
2019-06-01T10:25:51.707Z,100747.71
2019-06-01T10:30:54.273Z,100756.03
2019-06-01T10:33:23.507Z,100754.88
2019-06-01T10:35:52.812Z,100754.15
2019-06-01T10:38:22.036Z,100761.42
2019-06-01T10:40:51.651Z,100753.83
2019-06-01T10:43:21.581Z,100747.22
2019-06-01T10:45:50.947Z,100731.50
2019-06-01T10:48:20.178Z,100740.75
2019-06-01T10:50:49.823Z,100745.87
2019-06-01T10:53:19.108Z,100753.17
2019-06-01T10:55:48.714Z,100745.22
2019-06-01T10:58:18.059Z,100744.98
2019-06-01T11:00:51.019Z,100747.74
2019-06-01T11:03:18.589Z,100744.80
2019-06-01T11:05:52.304Z,100746.55
2019-06-01T11:08:21.584Z,100739.57
2019-06-01T11:10:53.703Z,100739.81
2019-06-01T11:16:57.346Z,100728.89
2019-06-01T11:28:21.698Z,100696.83
2019-06-01T11:30:51.054Z,100711.70
2019-06-01T11:33:20.409Z,100704.45
2019-06-01T11:35:51.525Z,100695.98
2019-06-01T11:38:20.740Z,100688.83
2019-06-01T11:41:18.700Z,100690.02
2019-06-01T11:43:47.723Z,100690.73
2019-06-01T11:46:17.240Z,100692.01
2019-06-01T11:48:46.561Z,100689.83
2019-06-01T11:51:15.821Z,100681.52
2019-06-01T11:53:45.695Z,100681.94
2019-06-01T11:56:15.124Z,100681.26
2019-06-01T11:58:45.510Z,100677.71
2019-06-01T12:01:15.173Z,100667.29
2019-06-01T12:03:46.065Z,100665.98
2019-06-01T12:06:15.394Z,100670.30
2019-06-01T12:08:44.686Z,100672.81
2019-06-01T12:11:14.336Z,100666.52
2019-06-01T12:13:44.491Z,100668.34
2019-06-01T12:16:13.776Z,100674.28
2019-06-01T12:18:44.624Z,100665.83
2019-06-01T12:21:15.037Z,100659.06
2019-06-01T12:23:45.629Z,100660.49
2019-06-01T12:26:15.050Z,100661.74
2019-06-01T12:28:45.731Z,100665.38
2019-06-01T12:31:15.177Z,100652.87
2019-06-01T12:33:46.273Z,100651.33
2019-06-01T12:36:15.691Z,100650.31
2019-06-01T12:38:52.244Z,100641.61
2019-06-01T12:41:22.614Z,100649.83
2019-06-01T12:44:10.949Z,100650.78
2019-06-01T12:46:40.273Z,100645.84
2019-06-01T12:49:09.642Z,100642.33
2019-06-01T12:51:40.499Z,100642.11
2019-06-01T12:54:10.382Z,100636.70
2019-06-01T12:56:40.766Z,100634.23
2019-06-01T12:59:10.043Z,100641.27
2019-06-01T13:01:39.345Z,100626.73
2019-06-01T13:04:08.909Z,100622.75
2019-06-01T13:06:38.146Z,100628.47
2019-06-01T13:09:09.020Z,100626.59
2019-06-01T13:30:01.815Z,100619.28
2019-06-01T13:32:31.693Z,100617.11
2019-06-01T13:35:01.396Z,100616.52
2019-06-01T13:37:30.649Z,100615.46
2019-06-01T13:40:02.600Z,100610.91
2019-06-01T13:42:33.165Z,100607.50
2019-06-01T13:50:15.124Z,100600.49
2019-06-01T13:52:45.823Z,100594.84
2019-06-01T13:55:15.148Z,100588.69
2019-06-01T13:57:44.369Z,100586.23
2019-06-01T14:00:15.769Z,100584.20
2019-06-01T14:02:49.593Z,100578.52
2019-06-01T14:05:16.040Z,100576.15
2019-06-01T14:07:45.512Z,100572.14
2019-06-01T14:10:15.069Z,100569.70
2019-06-01T14:12:45.244Z,100565.73
2019-06-01T14:15:15.226Z,100567.86
2019-06-01T14:17:45.921Z,100567.48
2019-06-01T14:20:16.306Z,100561.09
2019-06-01T14:22:45.899Z,100550.55
2019-06-01T14:25:16.596Z,100556.25
2019-06-01T14:27:46.118Z,100552.66
2019-06-01T14:30:15.734Z,100549.39
2019-06-01T14:32:46.169Z,100547.94
2019-06-01T14:35:15.586Z,100544.95
2019-06-01T14:37:44.826Z,100544.71
2019-06-01T14:40:14.398Z,100542.80
2019-06-01T14:42:44.101Z,100537.64
2019-06-01T14:45:13.968Z,100536.08
2019-06-01T14:47:43.501Z,100533.65
2019-06-01T14:50:13.260Z,100531.17
2019-06-01T14:52:42.952Z,100534.07
2019-06-01T14:55:13.627Z,100525.72
2019-06-01T14:57:42.848Z,100521.02
2019-06-01T15:00:12.936Z,100519.95
2019-06-01T15:02:42.454Z,100518.73
2019-06-01T15:05:11.890Z,100514.39
2019-06-01T15:07:41.135Z,100514.01
2019-06-01T15:10:11.503Z,100514.61
2019-06-01T15:12:40.775Z,100513.45
2019-06-01T15:15:10.830Z,100516.31
2019-06-01T15:17:42.532Z,100505.33
2019-06-01T15:20:13.440Z,100513.70
2019-06-01T15:22:42.708Z,100508.13
2019-06-01T15:25:13.719Z,100506.64
2019-06-01T15:27:42.980Z,100502.80
2019-06-01T15:30:12.938Z,100499.73
2019-06-01T15:32:42.361Z,100501.52
2019-06-01T15:35:12.195Z,100494.47
2019-06-01T15:37:41.448Z,100495.45
2019-06-01T15:40:11.764Z,100490.64
2019-06-01T15:42:42.600Z,100488.38
2019-06-01T15:45:13.702Z,100482.20
2019-06-01T15:47:43.336Z,100485.03
2019-06-01T15:50:13.218Z,100480.90
2019-06-01T15:52:42.852Z,100483.09
2019-06-01T15:55:12.496Z,100479.08
2019-06-01T15:57:43.133Z,100476.08
2019-06-01T16:00:14.065Z,100474.89
2019-06-01T16:02:43.721Z,100474.48
2019-06-01T16:05:13.254Z,100468.64
2019-06-01T16:07:42.917Z,100475.19
2019-06-01T16:10:14.039Z,100463.13
2019-06-01T16:12:43.295Z,100461.64
2019-06-01T16:15:15.563Z,100461.44
2019-06-01T16:17:44.960Z,100466.94
2019-06-01T16:20:15.777Z,100466.75
2019-06-01T16:22:45.041Z,100467.14
2019-06-01T16:25:16.027Z,100466.45
2019-06-01T16:27:45.556Z,100458.75
2019-06-01T16:30:15.598Z,100453.16
2019-06-01T16:32:44.903Z,100451.14
2019-06-01T16:35:14.223Z,100449.83
2019-06-01T16:37:43.458Z,100450.22
2019-06-01T16:40:13.925Z,100443.98
2019-06-01T16:42:44.525Z,100440.47
2019-06-01T16:45:14.343Z,100440.98
2019-06-01T16:47:43.991Z,100445.49
2019-06-01T16:50:13.658Z,100447.76
2019-06-01T16:52:43.040Z,100445.05
2019-06-01T16:55:13.136Z,100448.38
2019-06-01T16:57:42.529Z,100442.25
2019-06-01T17:00:12.247Z,100443.09
2019-06-01T17:02:45.432Z,100448.36
2019-06-01T17:05:14.881Z,100439.84
2019-06-01T17:07:44.186Z,100433.34
2019-06-01T17:10:25.545Z,100435.91
2019-06-01T17:12:45.697Z,100434.58
2019-06-01T17:15:15.507Z,100431.79
2019-06-01T17:17:45.391Z,100437.28
2019-06-01T17:20:44.009Z,100429.28
2019-06-01T17:23:27.495Z,100426.87
2019-06-01T17:25:46.043Z,100427.57
2019-06-01T17:28:16.244Z,100427.84
2019-06-01T17:30:45.788Z,100423.87
2019-06-01T17:33:15.359Z,100422.57
2019-06-01T17:35:45.666Z,100427.37
2019-06-01T17:38:15.298Z,100427.77
2019-06-01T17:40:44.528Z,100424.10
2019-06-01T17:43:14.220Z,100425.98
2019-06-01T17:45:43.554Z,100422.77
2019-06-01T17:48:25.801Z,100423.44
2019-06-01T17:50:45.144Z,100419.95
2019-06-01T17:53:14.406Z,100418.56
2019-06-01T17:55:45.724Z,100417.29
2019-06-01T17:58:15.204Z,100414.13
2019-06-01T18:00:44.722Z,100411.58
2019-06-01T18:03:14.123Z,100408.84
2019-06-01T18:05:44.195Z,100408.29
2019-06-01T18:08:14.086Z,100407.66
2019-06-01T18:10:53.887Z,100408.29
2019-06-01T18:13:16.018Z,100410.82
2019-06-01T18:15:45.698Z,100408.27
2019-06-01T18:18:15.660Z,100409.93
2019-06-01T18:20:45.007Z,100405.64
2019-06-01T18:23:14.540Z,100401.62
2019-06-01T18:25:44.121Z,100402.48
2019-06-01T18:28:19.061Z,100400.88
2019-06-01T18:30:45.282Z,100401.55
2019-06-01T18:33:14.831Z,100405.00
2019-06-01T18:35:44.617Z,100408.30
2019-06-01T18:38:14.848Z,100398.56
2019-06-01T18:40:44.347Z,100398.60
2019-06-01T18:43:17.235Z,100393.81
2019-06-01T18:45:47.349Z,100387.31
2019-06-01T18:48:17.984Z,100388.73
2019-06-01T18:50:48.383Z,100384.92
2019-06-01T18:53:17.743Z,100378.06
2019-06-01T18:55:47.006Z,100379.13
2019-06-01T18:58:17.617Z,100379.66
2019-06-01T19:00:47.344Z,100379.71
2019-06-01T19:03:19.950Z,100362.37
2019-06-01T19:05:49.531Z,100355.36
2019-06-01T19:08:18.785Z,100345.41
2019-06-01T19:10:49.044Z,100345.06
2019-06-01T19:13:19.021Z,100344.34
2019-06-01T19:15:48.507Z,100338.81
2019-06-01T19:18:17.833Z,100345.30
2019-06-01T19:20:47.155Z,100341.55
2019-06-01T19:23:21.412Z,100341.20
2019-06-01T19:25:47.827Z,100343.73
2019-06-01T19:28:17.919Z,100343.27
2019-06-01T19:30:48.452Z,100339.43
2019-06-01T19:33:19.396Z,100327.69
2019-06-01T19:35:50.217Z,100318.19
2019-06-01T19:38:21.571Z,100328.71
2019-06-01T19:40:50.842Z,100323.57
2019-06-01T19:43:20.532Z,100304.44
2019-06-01T19:45:57.467Z,100302.05
2019-06-01T19:48:33.059Z,100283.66
2019-06-01T19:51:02.341Z,100275.70
2019-06-01T19:53:31.668Z,100271.23
2019-06-01T19:56:01.302Z,100268.85
2019-06-01T19:58:30.958Z,100262.81
2019-06-01T20:01:00.819Z,100257.44
2019-06-01T20:03:30.246Z,100252.53
2019-06-01T20:05:59.608Z,100238.45
2019-06-01T20:08:29.687Z,100232.16
2019-06-01T20:10:59.319Z,100225.16
2019-06-01T20:13:28.544Z,100218.44
2019-06-01T20:15:58.272Z,100217.73
2019-06-01T20:18:27.555Z,100215.94
2019-06-01T20:20:59.401Z,100215.16
2019-06-01T20:23:28.629Z,100207.20
2019-06-01T20:25:58.277Z,100211.29
2019-06-01T20:28:28.261Z,100196.86
2019-06-01T20:30:57.611Z,100200.83
2019-06-01T20:33:26.892Z,100191.12
2019-06-01T20:35:56.151Z,100192.75
2019-06-01T20:38:25.913Z,100189.44
2019-06-01T20:40:56.149Z,100184.30
2019-06-01T20:43:25.936Z,100188.77
2019-06-01T20:45:57.044Z,100175.61
2019-06-01T20:48:26.411Z,100170.35
2019-06-01T20:50:55.614Z,100165.09
2019-06-01T20:53:24.887Z,100168.64
2019-06-01T20:55:54.736Z,100164.12
2019-06-01T20:58:24.962Z,100162.97
2019-06-01T21:00:54.673Z,100165.32
2019-06-01T21:03:24.519Z,100164.86
2019-06-01T21:05:54.790Z,100160.23
2019-06-01T21:08:24.313Z,100158.46
2019-06-01T21:10:54.195Z,100163.28
2019-06-01T21:13:24.175Z,100163.43
2019-06-01T21:15:53.903Z,100160.93
2019-06-01T21:18:23.185Z,100152.02
2019-06-01T21:20:52.422Z,100160.02
2019-06-01T21:23:22.545Z,100162.48
2019-06-01T21:25:52.321Z,100163.31
2019-06-01T21:28:22.459Z,100163.91
2019-06-01T21:30:52.803Z,100164.76
2019-06-01T21:33:25.363Z,100155.45
2019-06-01T21:35:53.378Z,100160.89
2019-06-01T21:38:23.722Z,100154.40
2019-06-01T21:40:53.425Z,100160.62
2019-06-01T21:43:29.503Z,100155.70
2019-06-01T21:45:53.700Z,100160.98
2019-06-01T21:48:23.873Z,100154.23
2019-06-01T21:50:53.554Z,100160.75
2019-06-01T21:53:22.821Z,100162.80
2019-06-01T21:55:52.052Z,100170.86
2019-06-01T21:58:22.722Z,100167.86
2019-06-01T22:00:52.422Z,100162.78
2019-06-01T22:03:23.126Z,100176.42
2019-06-01T22:05:52.737Z,100165.80
2019-06-01T22:08:23.162Z,100168.47
2019-06-01T22:10:52.514Z,100172.44
2019-06-01T22:13:27.088Z,100180.90
2019-06-01T22:15:56.269Z,100180.90
2019-06-01T22:20:46.841Z,100193.37
2019-06-01T22:23:17.827Z,100176.71
2019-06-01T22:25:47.162Z,100178.19
2019-06-01T22:28:16.443Z,100181.30
2019-06-01T22:30:45.704Z,100172.55
2019-06-01T22:33:14.935Z,100172.55
2019-06-01T22:35:44.742Z,100179.10
2019-06-01T22:38:14.689Z,100174.38
2019-06-01T22:40:44.159Z,100175.71
2019-06-01T22:43:13.824Z,100174.48
2019-06-01T22:45:43.141Z,100174.84
2019-06-01T22:48:12.997Z,100169.48
2019-06-01T22:50:42.299Z,100165.38
2019-06-01T22:53:11.601Z,100170.45
2019-06-01T22:55:40.857Z,100175.80
2019-06-01T22:58:10.153Z,100178.98
2019-06-01T23:00:39.823Z,100186.37
2019-06-01T23:03:09.342Z,100194.52
2019-06-01T23:05:38.603Z,100199.38
2019-06-01T23:08:08.237Z,100205.14
2019-06-01T23:10:38.161Z,100197.78
2019-06-01T23:13:08.169Z,100204.80
2019-06-01T23:15:37.606Z,100196.18
2019-06-01T23:18:06.870Z,100193.91
2019-06-01T23:20:36.218Z,100189.12
2019-06-01T23:23:06.035Z,100186.84
2019-06-01T23:25:35.308Z,100182.69
2019-06-01T23:28:05.151Z,100173.76
2019-06-01T23:30:34.443Z,100174.45
2019-06-01T23:33:03.698Z,100166.92
2019-06-01T23:35:33.248Z,100164.45
2019-06-01T23:38:02.759Z,100167.55
2019-06-01T23:40:33.273Z,100171.29
2019-06-01T23:43:02.561Z,100183.97
2019-06-01T23:45:32.989Z,100183.59
2019-06-01T23:48:02.814Z,100182.50
2019-06-01T23:50:32.555Z,100180.81
2019-06-01T23:53:13.205Z,100191.91
2019-06-01T23:55:34.092Z,100196.55
2019-06-01T23:58:03.491Z,100212.68
